Time;durP1;ratioP1;P1;durP2;ratioP2;P2;SDS_P1;SDS_P2;PMS_P1;PMS_P2;Temp;Humidity;BMP_temperature;BMP_pressure;BME280_temperature;BME280_humidity;BME280_pressure;Samples;Min_cycle;Max_cycle;Signal;HPM_P1;HPM_P2
2021/12/01 00:01:54;;;;;;;13.73;5.88;;;;;;;10.17;100.00;99893.22;5027251;28;20057;-72
2021/12/01 00:04:21;;;;;;;16.73;6.60;;;;;;;10.18;100.00;99883.75;5036371;28;20055;-75
2021/12/01 00:06:47;;;;;;;10.15;4.18;;;;;;;10.19;100.00;99871.50;5026965;28;20081;-73
2021/12/01 00:09:14;;;;;;;10.95;4.15;;;;;;;10.19;100.00;99871.50;5028311;28;20061;-73
2021/12/01 00:11:41;;;;;;;9.73;4.07;;;;;;;10.10;100.00;99857.38;5031424;28;20083;-74
2021/12/01 00:14:07;;;;;;;8.68;4.03;;;;;;;10.10;100.00;99867.66;5033803;28;20136;-73
2021/12/01 00:16:34;;;;;;;8.02;3.60;;;;;;;10.10;100.00;99851.84;5027999;28;20057;-73
2021/12/01 00:19:00;;;;;;;7.57;3.35;;;;;;;10.13;100.00;99858.56;5028903;28;20064;-75
2021/12/01 00:21:27;;;;;;;7.90;4.30;;;;;;;10.06;100.00;99853.13;5033008;28;20141;-73
2021/12/01 00:23:54;;;;;;;6.30;3.40;;;;;;;10.01;100.00;99842.47;5032460;28;20073;-73
2021/12/01 00:26:21;;;;;;;9.27;4.35;;;;;;;10.03;100.00;99840.84;5031509;28;20135;-76
2021/12/01 00:28:48;;;;;;;11.45;4.38;;;;;;;10.10;100.00;99826.97;5019118;28;20769;-72
2021/12/01 00:31:14;;;;;;;5.93;3.33;;;;;;;10.08;100.00;99832.16;5028116;28;20133;-74
2021/12/01 00:33:41;;;;;;;7.50;2.78;;;;;;;10.04;100.00;99820.34;5036670;28;20422;-72
2021/12/01 00:36:13;;;;;;;10.82;4.53;;;;;;;9.96;100.00;99846.47;5031107;28;20050;-74
2021/12/01 00:38:42;;;;;;;7.35;3.03;;;;;;;9.97;100.00;99837.00;5025059;28;20056;-74
2021/12/01 00:41:12;;;;;;;12.93;4.38;;;;;;;9.94;100.00;99820.47;5035387;28;20095;-76
2021/12/01 00:43:39;;;;;;;10.27;4.95;;;;;;;9.90;100.00;99798.41;5031096;28;20061;-74
2021/12/01 00:46:14;;;;;;;7.88;3.15;;;;;;;9.96;100.00;99801.50;5034973;28;20570;-73
2021/12/01 00:48:41;;;;;;;6.32;3.00;;;;;;;10.00;100.00;99810.53;5042881;28;20045;-73
2021/12/01 00:51:08;;;;;;;6.63;3.33;;;;;;;9.91;100.00;99796.41;5032717;28;20136;-72
2021/12/01 00:53:35;;;;;;;5.45;2.67;;;;;;;9.92;100.00;99796.00;5031321;28;20071;-73
2021/12/01 00:56:02;;;;;;;7.90;4.00;;;;;;;9.86;100.00;99796.91;5033198;28;20466;-74
2021/12/01 00:58:28;;;;;;;5.22;2.85;;;;;;;9.92;100.00;99789.69;5026281;28;20057;-73
2021/12/01 01:00:55;;;;;;;4.93;2.75;;;;;;;9.93;100.00;99780.22;5019333;28;20058;-75
2021/12/01 01:03:22;;;;;;;5.75;2.83;;;;;;;9.87;100.00;99766.09;5028003;28;20065;-75
2021/12/01 01:05:49;;;;;;;4.72;2.55;;;;;;;9.93;100.00;99769.94;5022872;28;20080;-75
2021/12/01 01:08:17;;;;;;;8.13;3.65;;;;;;;9.91;100.00;99769.59;5038723;28;20502;-74
2021/12/01 01:18:43;;;;;;;7.55;3.50;;;;;;;9.92;100.00;99740.75;5023620;28;20056;-73
2021/12/01 01:21:11;;;;;;;8.73;4.13;;;;;;;9.92;100.00;99735.22;5026492;28;20089;-74
2021/12/01 01:23:38;;;;;;;6.32;3.28;;;;;;;9.92;100.00;99740.75;5037320;28;20464;-74
2021/12/01 01:26:10;;;;;;;4.63;2.22;;;;;;;9.96;100.00;99724.13;5042277;28;20145;-74
2021/12/01 01:28:37;;;;;;;8.10;3.15;;;;;;;9.98;100.00;99700.41;5032431;28;20521;-74
2021/12/01 01:31:04;;;;;;;7.28;3.60;;;;;;;9.90;100.00;99710.00;5034933;28;20108;-76
2021/12/01 01:33:31;;;;;;;9.65;4.05;;;;;;;9.90;100.00;99715.53;5030616;28;20107;-75
2021/12/01 01:35:58;;;;;;;5.88;2.75;;;;;;;9.97;100.00;99704.38;5034697;28;20129;-74
2021/12/01 01:38:28;;;;;;;5.03;2.20;;;;;;;9.95;100.00;99700.44;5039409;28;20057;-74
2021/12/01 01:40:55;;;;;;;5.75;2.95;;;;;;;9.96;100.00;99690.97;5044218;28;20108;-74
2021/12/01 01:43:22;;;;;;;3.05;1.80;;;;;;;10.01;100.00;99676.66;5023734;28;20051;-73
2021/12/01 01:45:52;;;;;;;2.58;1.42;;;;;;;9.98;100.00;99675.53;5028964;28;20511;-74
2021/12/01 01:48:29;;;;;;;7.05;2.83;;;;;;;9.97;100.00;99662.91;5029446;28;20052;-74
2021/12/01 01:50:57;;;;;;;8.00;2.58;;;;;;;9.93;100.00;99673.22;5026424;28;20074;-75
2021/12/01 01:53:25;;;;;;;7.07;3.22;;;;;;;10.00;100.00;99651.00;5030682;28;20092;-74
2021/12/01 01:55:55;;;;;;;5.45;2.55;;;;;;;9.98;100.00;99658.94;5029843;28;20129;-74
2021/12/01 01:58:22;;;;;;;2.97;1.48;;;;;;;10.01;100.00;99649.81;5033666;28;20500;-74
2021/12/01 02:01:06;;;;;;;7.72;2.42;;;;;;;10.03;100.00;99636.34;5031126;28;20128;-74
2021/12/01 02:03:37;;;;;;;4.47;2.30;;;;;;;10.01;100.00;99632.47;5042985;28;20107;-75
2021/12/01 02:06:06;;;;;;;4.28;2.28;;;;;;;10.01;100.00;99632.47;5035531;28;20045;-76
2021/12/01 02:08:34;;;;;;;5.28;2.05;;;;;;;10.01;100.00;99613.13;5031792;28;20055;-74
2021/12/01 02:11:05;;;;;;;6.95;3.17;;;;;;;9.96;100.00;99624.66;5030295;28;20863;-75
2021/12/01 02:13:33;;;;;;;2.90;1.75;;;;;;;10.03;100.00;99603.19;5035944;28;20053;-76
2021/12/01 02:16:00;;;;;;;3.25;1.60;;;;;;;10.04;100.00;99610.31;5029011;28;20049;-76
2021/12/01 02:18:27;;;;;;;3.47;1.92;;;;;;;10.00;100.00;99606.78;5031753;28;20124;-74
2021/12/01 02:21:27;;;;;;;3.33;1.58;;;;;;;9.99;100.00;99587.91;5025808;28;20181;-76
2021/12/01 02:24:00;;;;;;;6.25;2.42;;;;;;;9.87;100.00;99597.56;5016590;28;20084;-75
2021/12/01 02:26:29;;;;;;;5.35;2.35;;;;;;;9.90;100.00;99576.59;5038018;28;20533;-74
2021/12/01 02:28:58;;;;;;;4.22;1.65;;;;;;;9.92;100.00;99588.78;5033275;28;20468;-73
2021/12/01 02:31:30;;;;;;;4.50;2.00;;;;;;;9.92;100.00;99580.50;5033897;28;20156;-74
2021/12/01 02:33:57;;;;;;;2.70;1.40;;;;;;;9.92;100.00;99577.72;5042403;28;20045;-74
2021/12/01 02:36:23;;;;;;;5.18;1.85;;;;;;;9.88;100.00;99563.19;5032921;28;20072;-73
2021/12/01 02:38:50;;;;;;;3.97;1.92;;;;;;;9.88;100.00;99571.47;5029969;28;20847;-74
2021/12/01 02:41:24;;;;;;;3.90;2.35;;;;;;;9.81;100.00;99566.06;5037369;28;20457;-73
2021/12/01 02:43:51;;;;;;;9.23;1.60;;;;;;;9.90;100.00;99560.81;5024658;28;20049;-73
2021/12/01 02:46:18;;;;;;;4.10;1.90;;;;;;;9.87;100.00;99556.13;5026664;28;20108;-75
2021/12/01 02:48:46;;;;;;;4.30;2.25;;;;;;;9.76;100.00;99558.25;5027487;28;20056;-74
2021/12/01 02:51:13;;;;;;;4.03;1.77;;;;;;;9.75;100.00;99558.66;5026218;28;20071;-74
2021/12/01 02:53:41;;;;;;;5.35;2.20;;;;;;;9.81;100.00;99546.75;5029833;28;20132;-74
2021/12/01 02:56:08;;;;;;;5.18;2.67;;;;;;;9.59;100.00;99537.22;5022877;28;20048;-75
2021/12/01 02:58:43;;;;;;;3.80;2.47;;;;;;;9.56;100.00;99546.38;5030327;28;20536;-75
2021/12/01 03:01:14;;;;;;;3.77;2.27;;;;;;;9.48;100.00;99517.28;5029320;28;20076;-75
2021/12/01 03:03:42;;;;;;;5.70;2.53;;;;;;;9.48;100.00;99514.53;5029317;28;20327;-75
2021/12/01 03:06:10;;;;;;;7.80;3.28;;;;;;;9.45;100.00;99522.88;5031072;28;20153;-75
2021/12/01 03:08:39;;;;;;;3.75;2.20;;;;;;;9.47;100.00;99514.94;5032204;28;20053;-74
2021/12/01 03:11:06;;;;;;;7.10;2.75;;;;;;;9.37;100.00;99508.41;5033936;28;20084;-76
2021/12/01 03:13:32;;;;;;;5.63;2.92;;;;;;;9.36;100.00;99501.31;5047156;28;20140;-75
2021/12/01 03:15:59;;;;;;;6.80;1.90;;;;;;;9.39;100.00;99502.47;5030370;28;20068;-75
2021/12/01 03:18:27;;;;;;;7.90;4.35;;;;;;;9.23;100.00;99505.84;5034671;28;20076;-75
2021/12/01 03:20:54;;;;;;;4.22;2.10;;;;;;;9.29;100.00;99490.41;5037683;28;20081;-75
2021/12/01 03:23:22;;;;;;;6.30;3.03;;;;;;;9.26;100.00;99485.72;5029024;28;20057;-74
2021/12/01 03:25:49;;;;;;;11.55;4.65;;;;;;;9.18;100.00;99498.03;5029615;28;20049;-75
2021/12/01 03:28:17;;;;;;;6.47;3.08;;;;;;;9.23;100.00;99488.50;5030595;28;20485;-75
2021/12/01 03:30:43;;;;;;;10.70;4.80;;;;;;;9.13;100.00;99468.16;5038076;28;20561;-74
2021/12/01 03:33:13;;;;;;;6.75;2.70;;;;;;;9.20;100.00;99458.97;5034606;28;20049;-74
2021/12/01 03:35:43;;;;;;;8.55;4.45;;;;;;;9.16;100.00;99458.25;5040901;28;20513;-75
2021/12/01 03:38:11;;;;;;;5.95;2.80;;;;;;;9.16;100.00;99464.56;5030242;28;20052;-75
2021/12/01 03:40:39;;;;;;;9.65;4.78;;;;;;;9.16;100.00;99461.03;5034015;28;20132;-75
2021/12/01 03:43:06;;;;;;;9.35;3.65;;;;;;;9.09;100.00;99439.06;5035419;28;20119;-75
2021/12/01 03:45:32;;;;;;;8.63;3.58;;;;;;;9.17;100.00;99455.09;5030405;28;20144;-75
2021/12/01 03:48:00;;;;;;;13.38;5.20;;;;;;;9.17;100.00;99434.97;5035434;28;20114;-74
2021/12/01 03:50:26;;;;;;;12.05;4.97;;;;;;;9.20;100.00;99454.25;5032776;28;20476;-74
2021/12/01 03:52:53;;;;;;;13.30;5.40;;;;;;;9.22;100.00;99421.47;5029248;28;20497;-74
2021/12/01 03:55:20;;;;;;;8.20;3.28;;;;;;;9.24;100.00;99427.38;5029854;28;20053;-76
2021/12/01 03:57:46;;;;;;;6.97;2.63;;;;;;;9.28;100.00;99435.63;5039977;28;20509;-75
2021/12/01 04:00:15;;;;;;;13.40;5.90;;;;;;;9.21;100.00;99428.22;5032966;28;20148;-76
2021/12/01 04:02:43;;;;;;;12.70;5.75;;;;;;;9.19;100.00;99407.75;5031544;28;20052;-77
2021/12/01 04:05:11;;;;;;;13.45;5.22;;;;;;;9.20;100.00;99401.81;5030749;28;20127;-76
2021/12/01 04:07:40;;;;;;;10.52;4.13;;;;;;;9.24;100.00;99396.22;5031236;28;20105;-74
2021/12/01 04:10:11;;;;;;;12.23;5.05;;;;;;;9.21;100.00;99397.84;5048627;28;20145;-76
2021/12/01 04:12:38;;;;;;;10.70;4.30;;;;;;;9.21;100.00;99372.25;5033896;28;20482;-77
2021/12/01 04:15:05;;;;;;;13.60;5.93;;;;;;;9.15;100.00;99351.84;5028556;28;20049;-76
2021/12/01 04:17:32;;;;;;;13.57;6.85;;;;;;;9.08;100.00;99372.03;5046674;28;20041;-76
2021/12/01 04:19:58;;;;;;;11.80;5.57;;;;;;;9.10;100.00;99349.56;5036895;28;20567;-75
2021/12/01 04:22:25;;;;;;;9.05;4.07;;;;;;;9.13;100.00;99371.59;5033209;28;20091;-76
2021/12/01 04:24:52;;;;;;;9.40;3.22;;;;;;;9.13;100.00;99346.75;5033033;28;20132;-74
2021/12/01 04:27:19;;;;;;;15.65;5.45;;;;;;;9.09;100.00;99357.06;5033831;28;20051;-74
2021/12/01 04:29:45;;;;;;;12.05;5.40;;;;;;;9.06;100.00;99338.59;5053381;28;20057;-74
2021/12/01 04:32:12;;;;;;;14.77;6.50;;;;;;;9.03;100.00;99375.28;5043272;28;20482;-75
2021/12/01 04:34:39;;;;;;;15.48;6.40;;;;;;;9.06;100.00;99344.13;5033983;28;20145;-73
2021/12/01 04:37:06;;;;;;;17.30;6.72;;;;;;;9.03;100.00;99344.94;5033772;28;20203;-76
2021/12/01 04:39:33;;;;;;;10.35;4.38;;;;;;;9.14;100.00;99322.69;5038861;28;20136;-76
2021/12/01 04:42:05;;;;;;;14.10;6.05;;;;;;;9.15;100.00;99333.28;5032102;28;20075;-75
2021/12/01 04:44:33;;;;;;;10.38;4.63;;;;;;;9.18;100.00;99321.44;5033628;28;20140;-75
2021/12/01 04:47:03;;;;;;;12.93;5.90;;;;;;;9.20;100.00;99321.00;5033038;28;20043;-75
2021/12/01 04:49:35;;;;;;;12.80;5.88;;;;;;;9.18;100.00;99315.16;5033828;28;20429;-75
2021/12/01 04:52:02;;;;;;;14.27;5.85;;;;;;;9.19;100.00;99295.41;5036485;28;20049;-76
2021/12/01 04:54:29;;;;;;;12.55;4.97;;;;;;;9.21;100.00;99287.47;5033468;28;20076;-74
2021/12/01 04:56:57;;;;;;;13.15;5.60;;;;;;;9.17;100.00;99303.31;5032600;28;20565;-75
2021/12/01 04:59:24;;;;;;;8.80;3.95;;;;;;;9.20;100.00;99287.88;5033732;28;20091;-74
2021/12/01 05:01:56;;;;;;;8.95;3.97;;;;;;;9.18;100.00;99262.72;5046430;28;20049;-75
2021/12/01 05:04:23;;;;;;;14.20;7.35;;;;;;;9.05;100.00;99303.91;5044297;28;20045;-76
2021/12/01 05:06:50;;;;;;;11.63;4.88;;;;;;;9.18;100.00;99260.72;5034610;28;20053;-75
2021/12/01 05:09:17;;;;;;;15.45;5.00;;;;;;;9.16;100.00;99265.09;5032421;28;20088;-75
2021/12/01 05:11:44;;;;;;;13.50;5.25;;;;;;;9.14;100.00;99262.75;5040104;28;20420;-75
2021/12/01 05:14:12;;;;;;;12.27;4.85;;;;;;;9.17;100.00;99230.78;5042006;28;20057;-75
2021/12/01 05:16:40;;;;;;;12.75;5.15;;;;;;;9.15;100.00;99228.44;5044478;28;20049;-76
2021/12/01 05:19:10;;;;;;;11.52;4.22;;;;;;;9.21;100.00;99239.81;5032901;28;20107;-76
2021/12/01 05:21:37;;;;;;;16.17;5.22;;;;;;;9.21;100.00;99215.72;5031569;28;20678;-76
2021/12/01 05:24:04;;;;;;;10.60;3.22;;;;;;;9.22;100.00;99222.78;5032722;28;20157;-76
2021/12/01 05:26:31;;;;;;;11.40;4.43;;;;;;;9.21;100.00;99204.69;5036267;28;20135;-76
2021/12/01 05:28:57;;;;;;;6.40;3.35;;;;;;;9.18;100.00;99210.28;5025127;28;20131;-76
2021/12/01 05:31:24;;;;;;;10.95;4.90;;;;;;;9.22;100.00;99197.94;5037333;28;20053;-75
2021/12/01 05:33:51;;;;;;;11.02;4.18;;;;;;;9.25;100.00;99177.03;5039788;28;20049;-75
2021/12/01 05:36:18;;;;;;;13.95;5.45;;;;;;;9.19;100.00;99187.78;5031979;28;20048;-75
2021/12/01 05:38:45;;;;;;;7.35;3.05;;;;;;;9.36;100.00;99152.75;5033815;28;20133;-75
2021/12/01 05:41:12;;;;;;;9.05;3.42;;;;;;;9.26;100.00;99149.00;5038024;28;20079;-76
2021/12/01 05:43:38;;;;;;;4.82;2.42;;;;;;;9.33;100.00;99131.50;5041920;28;20054;-76
2021/12/01 05:46:05;;;;;;;7.60;3.25;;;;;;;9.33;100.00;99140.59;5031925;28;20071;-76
2021/12/01 05:48:32;;;;;;;8.35;3.25;;;;;;;9.35;100.00;99162.25;5029082;28;20483;-76
2021/12/01 05:50:58;;;;;;;6.72;3.17;;;;;;;9.43;100.00;99114.72;5031092;28;20054;-74
2021/12/01 05:53:25;;;;;;;6.43;3.10;;;;;;;9.43;100.00;99120.25;5031487;28;20053;-74
2021/12/01 05:55:52;;;;;;;8.63;4.13;;;;;;;9.31;100.00;99156.00;5030161;28;20124;-75
2021/12/01 05:58:19;;;;;;;10.60;3.88;;;;;;;9.43;100.00;99117.50;5029750;28;20124;-74
2021/12/01 06:00:45;;;;;;;7.43;2.70;;;;;;;9.45;100.00;99089.47;5029707;28;20064;-74
2021/12/01 06:03:12;;;;;;;8.35;3.60;;;;;;;9.42;100.00;99093.09;5030192;28;20045;-75
2021/12/01 06:05:39;;;;;;;9.18;3.38;;;;;;;9.40;100.00;99082.47;5031427;28;20095;-74
2021/12/01 06:08:06;;;;;;;7.55;2.50;;;;;;;9.43;100.00;99075.31;5046747;28;20056;-75
2021/12/01 06:10:33;;;;;;;4.10;2.25;;;;;;;9.41;100.00;99072.97;5031239;28;20107;-75
2021/12/01 06:13:00;;;;;;;9.13;2.22;;;;;;;9.44;100.00;99071.31;5045927;28;20117;-74
2021/12/01 06:15:29;;;;;;;8.57;2.88;;;;;;;9.41;100.00;99092.28;5050428;28;20496;-74
2021/12/01 06:17:58;;;;;;;5.07;2.85;;;;;;;9.45;100.00;99062.63;5036639;28;20574;-74
2021/12/01 06:20:25;;;;;;;6.68;2.63;;;;;;;9.47;100.00;99060.22;5043037;28;20064;-74
2021/12/01 06:22:52;;;;;;;4.75;2.20;;;;;;;9.54;100.00;99054.53;5033199;28;20050;-75
2021/12/01 06:25:19;;;;;;;6.07;2.58;;;;;;;9.45;100.00;99057.09;5030322;28;20088;-75
2021/12/01 06:27:51;;;;;;;3.88;2.22;;;;;;;9.47;100.00;99046.41;5037248;28;20128;-75
2021/12/01 06:30:18;;;;;;;5.28;2.95;;;;;;;9.36;100.00;99048.66;5043379;28;20076;-76
2021/12/01 06:32:45;;;;;;;6.75;3.42;;;;;;;9.35;100.00;99027.00;5037426;28;20052;-74
2021/12/01 06:35:11;;;;;;;5.70;2.50;;;;;;;9.39;100.00;99022.94;5050627;28;20144;-76
2021/12/01 06:37:38;;;;;;;5.88;2.63;;;;;;;9.36;100.00;99026.56;5036220;28;20043;-75
2021/12/01 06:40:07;;;;;;;5.40;2.60;;;;;;;9.29;100.00;99014.91;5030658;28;20050;-75
2021/12/01 06:42:35;;;;;;;7.30;2.47;;;;;;;9.27;100.00;99012.56;5029408;28;20501;-76
2021/12/01 06:45:04;;;;;;;4.43;2.10;;;;;;;9.24;100.00;99020.91;5043637;28;20136;-73
2021/12/01 06:47:31;;;;;;;3.85;1.92;;;;;;;9.21;100.00;99008.78;5021134;28;20070;-75
2021/12/01 06:49:59;;;;;;;2.63;1.20;;;;;;;9.20;100.00;98998.16;5031296;28;20143;-74
2021/12/01 06:52:29;;;;;;;2.53;1.50;;;;;;;9.14;100.00;99005.38;5025200;28;20107;-76
2021/12/01 06:54:57;;;;;;;6.82;2.35;;;;;;;9.18;100.00;98990.31;5023470;28;20157;-76
2021/12/01 06:57:25;;;;;;;3.88;2.28;;;;;;;9.04;100.00;99009.94;5037329;28;20056;-75
2021/12/01 06:59:52;;;;;;;8.05;2.13;;;;;;;9.00;100.00;98987.19;5030508;28;20140;-76
2021/12/01 07:02:19;;;;;;;4.40;2.15;;;;;;;8.85;100.00;99004.47;5043051;28;20055;-77
2021/12/01 07:04:46;;;;;;;4.70;2.58;;;;;;;8.74;100.00;98990.13;5050339;28;20057;-76
2021/12/01 07:07:12;;;;;;;3.13;1.48;;;;;;;8.71;100.00;98990.97;5027979;28;20037;-77
2021/12/01 07:09:39;;;;;;;3.92;2.00;;;;;;;8.61;100.00;98981.72;5044454;28;20053;-74
2021/12/01 07:12:06;;;;;;;3.53;1.73;;;;;;;8.59;100.00;98980.59;5049260;28;20056;-74
2021/12/01 07:14:33;;;;;;;6.55;3.10;;;;;;;8.43;100.00;99008.09;5046317;28;20127;-76
2021/12/01 07:16:59;;;;;;;4.80;2.83;;;;;;;8.46;100.00;98979.66;5037696;28;20041;-75
2021/12/01 07:19:26;;;;;;;7.70;2.58;;;;;;;8.43;100.00;98973.03;5045479;28;20053;-76
2021/12/01 07:21:53;;;;;;;5.63;2.42;;;;;;;8.41;100.00;98963.66;5027575;28;20071;-77
2021/12/01 07:24:20;;;;;;;7.45;3.30;;;;;;;8.33;100.00;98959.50;5029783;28;20140;-76
2021/12/01 07:26:46;;;;;;;5.68;1.70;;;;;;;8.44;100.00;98957.28;5031591;28;20045;-78
2021/12/01 07:29:13;;;;;;;4.78;2.22;;;;;;;8.37;100.00;98949.94;5025887;28;20107;-78
2021/12/01 07:31:40;;;;;;;5.60;2.22;;;;;;;8.42;100.00;98941.19;5037299;28;20056;-79
2021/12/01 07:34:06;;;;;;;5.63;2.13;;;;;;;8.37;100.00;98932.63;5048655;28;20052;-76
2021/12/01 07:36:33;;;;;;;5.93;2.63;;;;;;;8.34;100.00;98953.56;5031521;28;20112;-77
2021/12/01 07:39:00;;;;;;;8.25;2.67;;;;;;;8.36;100.00;98942.88;5033545;28;20143;-76
2021/12/01 07:41:26;;;;;;;7.25;2.75;;;;;;;8.38;100.00;98917.66;5025994;28;20136;-79
2021/12/01 07:43:53;;;;;;;5.93;2.17;;;;;;;8.43;100.00;98923.44;5025000;28;20111;-77
2021/12/01 07:46:20;;;;;;;5.43;2.25;;;;;;;8.39;100.00;98919.19;5022711;28;20073;-79
2021/12/01 07:48:47;;;;;;;4.05;1.90;;;;;;;8.47;100.00;98909.59;5033908;28;20488;-77
2021/12/01 07:51:14;;;;;;;2.40;1.20;;;;;;;8.47;100.00;98907.59;5033882;28;20067;-77
2021/12/01 07:53:41;;;;;;;3.38;1.55;;;;;;;8.53;100.00;98896.84;5028954;28;20128;-78
2021/12/01 07:56:07;;;;;;;2.85;1.70;;;;;;;8.59;100.00;98895.13;5028179;28;20137;-76
2021/12/01 07:58:34;;;;;;;4.43;2.50;;;;;;;8.66;100.00;98917.03;5046335;28;20588;-78
2021/12/01 08:01:01;;;;;;;2.40;1.00;;;;;;;8.74;100.00;98896.38;5029066;28;20053;-78
2021/12/01 08:03:28;;;;;;;2.72;1.80;;;;;;;8.73;100.00;98894.81;5028842;28;20063;-76
2021/12/01 08:05:55;;;;;;;2.17;1.58;;;;;;;8.80;100.00;98917.50;5029560;28;20132;-77
2021/12/01 08:08:21;;;;;;;3.95;2.10;;;;;;;8.89;100.00;98898.38;5029025;28;20132;-80
2021/12/01 08:10:48;;;;;;;2.88;1.58;;;;;;;8.94;100.00;98906.13;5040528;28;20057;-78
2021/12/01 08:13:14;;;;;;;5.20;1.90;;;;;;;8.98;100.00;98893.03;5044167;28;20514;-77
2021/12/01 08:15:48;;;;;;;4.57;1.75;;;;;;;9.06;100.00;98899.16;5040615;28;20053;-75
2021/12/01 08:18:17;;;;;;;3.42;0.90;;;;;;;9.07;100.00;98886.91;5026059;28;20041;-73
2021/12/01 08:20:45;;;;;;;2.65;1.58;;;;;;;9.09;100.00;98901.84;5028350;28;20541;-74
2021/12/01 08:23:12;;;;;;;0.82;0.60;;;;;;;9.15;100.00;98921.44;5028692;28;20049;-74
2021/12/01 08:25:39;;;;;;;1.67;1.02;;;;;;;9.21;100.00;98876.31;5026178;28;20099;-74
2021/12/01 08:28:06;;;;;;;4.75;1.40;;;;;;;9.21;100.00;98868.03;5034109;28;20049;-70
2021/12/01 08:30:32;;;;;;;2.22;1.15;;;;;;;9.35;100.00;98875.19;5036359;28;20132;-68
2021/12/01 08:33:00;;;;;;;2.53;1.23;;;;;;;9.31;100.00;98849.66;5027814;28;20059;-73
2021/12/01 08:35:27;;;;;;;4.13;1.30;;;;;;;9.18;100.00;98846.84;5028575;28;20056;-72
2021/12/01 08:37:54;;;;;;;1.13;0.70;;;;;;;9.29;100.00;98847.34;5031857;28;20064;-72
2021/12/01 08:40:21;;;;;;;3.20;1.40;;;;;;;9.21;100.00;98881.09;5026705;28;20083;-74
2021/12/01 08:42:47;;;;;;;3.10;1.20;;;;;;;9.23;100.00;98859.34;5028406;28;20054;-73
2021/12/01 08:45:15;;;;;;;1.60;1.10;;;;;;;9.20;100.00;98858.22;5026478;28;20146;-74
2021/12/01 08:47:42;;;;;;;1.02;0.93;;;;;;;9.30;100.00;98843.38;5025483;28;20124;-72
2021/12/01 08:50:10;;;;;;;3.30;1.23;;;;;;;9.30;100.00;98832.34;5027675;28;20049;-74
2021/12/01 08:52:38;;;;;;;2.75;1.17;;;;;;;9.27;100.00;98833.22;5028562;28;20088;-77
2021/12/01 08:55:06;;;;;;;0.75;0.75;;;;;;;9.38;100.00;98830.19;5046668;28;20088;-76
2021/12/01 08:57:33;;;;;;;4.43;0.90;;;;;;;9.33;100.00;98837.00;5038717;28;20045;-75
2021/12/01 09:00:00;;;;;;;2.65;1.27;;;;;;;9.25;100.00;98840.38;5033954;28;20084;-75
2021/12/01 09:02:26;;;;;;;3.47;1.08;;;;;;;9.24;100.00;98823.03;5032348;28;20080;-75
2021/12/01 09:04:53;;;;;;;2.88;1.25;;;;;;;9.23;100.00;98832.53;5032619;28;20085;-77
2021/12/01 09:07:20;;;;;;;2.92;1.20;;;;;;;9.31;100.00;98813.78;5033195;28;20185;-75
2021/12/01 09:09:47;;;;;;;0.65;0.65;;;;;;;9.22;100.00;98819.91;5042736;28;20133;-73
2021/12/01 09:12:18;;;;;;;2.15;1.00;;;;;;;9.27;100.00;98819.41;5033609;28;20483;-75
2021/12/01 09:14:45;;;;;;;2.55;1.20;;;;;;;9.29;100.00;98825.28;5031441;28;20049;-73
2021/12/01 09:17:12;;;;;;;0.70;0.70;;;;;;;9.31;100.00;98811.81;5030275;28;20137;-73
2021/12/01 09:19:40;;;;;;;1.60;1.08;;;;;;;9.27;100.00;98811.13;5029982;28;20057;-74
2021/12/01 09:22:07;;;;;;;0.52;0.52;;;;;;;9.19;100.00;98828.31;5030032;28;20111;-74
2021/12/01 09:24:33;;;;;;;1.00;0.90;;;;;;;9.12;100.00;98798.13;5030412;28;20080;-77
2021/12/01 09:27:00;;;;;;;4.75;0.77;;;;;;;9.14;100.00;98802.00;5029468;28;20502;-75
2021/12/01 09:29:29;;;;;;;2.20;0.90;;;;;;;9.09;100.00;98810.81;5039394;28;20076;-76
2021/12/01 09:31:58;;;;;;;2.17;0.98;;;;;;;9.15;100.00;98809.06;5046191;28;20057;-75
2021/12/01 09:34:25;;;;;;;1.80;0.93;;;;;;;9.11;100.00;98805.63;5029632;28;20061;-74
2021/12/01 09:36:52;;;;;;;3.25;1.25;;;;;;;9.13;100.00;98817.03;5029103;28;20123;-74
2021/12/01 09:39:19;;;;;;;3.13;1.20;;;;;;;9.15;100.00;98792.50;5031869;28;20061;-76
2021/12/01 09:41:46;;;;;;;1.13;0.93;;;;;;;9.18;100.00;98775.09;5028012;28;20081;-74
2021/12/01 09:44:12;;;;;;;2.58;0.93;;;;;;;9.25;100.00;98774.91;5026891;28;20609;-74
2021/12/01 09:46:39;;;;;;;1.38;1.10;;;;;;;9.16;100.00;98783.03;5024441;28;21000;-75
2021/12/01 09:49:06;;;;;;;0.95;0.70;;;;;;;9.23;100.00;98787.59;5027069;28;20066;-74
2021/12/01 09:51:33;;;;;;;0.73;0.60;;;;;;;9.26;100.00;98768.19;5027882;28;20138;-75
2021/12/01 09:54:02;;;;;;;2.33;0.98;;;;;;;9.27;100.00;98783.53;5030787;28;20053;-76
2021/12/01 09:56:29;;;;;;;2.45;1.20;;;;;;;9.21;100.00;98792.78;5035110;28;20073;-75
2021/12/01 09:58:56;;;;;;;0.90;0.90;;;;;;;9.27;100.00;98777.22;5016083;28;20045;-77
2021/12/01 10:01:25;;;;;;;2.35;0.70;;;;;;;9.32;100.00;98771.19;5024692;28;20064;-75
2021/12/01 10:03:52;;;;;;;1.08;0.60;;;;;;;9.39;100.00;98766.25;5029628;28;20068;-75
2021/12/01 10:06:23;;;;;;;0.63;0.52;;;;;;;9.39;100.00;98777.28;5025395;28;20897;-75
2021/12/01 10:08:56;;;;;;;1.23;0.80;;;;;;;9.41;100.00;98763.84;5035648;28;20049;-76
2021/12/01 10:11:24;;;;;;;1.75;1.00;;;;;;;9.33;100.00;98768.00;5026725;28;21749;-75
2021/12/01 10:13:59;;;;;;;0.65;0.63;;;;;;;9.36;100.00;98761.63;5038353;28;20139;-75
2021/12/01 10:16:27;;;;;;;;;;;;;;;9.26;100.00;98772.94;5028246;28;20136;-77
2021/12/01 10:18:57;;;;;;;0.77;0.77;;;;;;;9.28;100.00;98757.47;5036629;28;19982;-74
2021/12/01 10:21:31;;;;;;;0.50;0.38;;;;;;;9.30;100.00;98757.06;5048454;28;20534;-75
2021/12/01 10:24:00;;;;;;;0.95;0.80;;;;;;;9.34;100.00;98749.44;5043238;28;20136;-73
2021/12/01 10:26:31;;;;;;;1.00;0.70;;;;;;;9.23;100.00;98730.44;5032323;28;20543;-74
2021/12/01 10:29:06;;;;;;;0.75;0.60;;;;;;;9.31;100.00;98734.53;5028931;28;20132;-74
2021/12/01 10:31:37;;;;;;;0.90;0.57;;;;;;;9.27;100.00;98735.84;5028638;28;20088;-75
2021/12/01 10:34:26;;;;;;;5.60;1.55;;;;;;;9.34;100.00;98732.88;5029311;28;20046;-74
2021/12/01 10:37:14;;;;;;;1.88;1.45;;;;;;;9.22;100.00;98728.88;5029007;28;20128;-74
2021/12/01 10:39:43;;;;;;;2.78;1.65;;;;;;;9.17;100.00;98728.63;5030540;28;20591;-74
2021/12/01 10:42:14;;;;;;;3.08;1.40;;;;;;;9.21;100.00;98726.56;5028752;28;20055;-74
2021/12/01 10:45:04;;;;;;;2.75;1.58;;;;;;;9.26;100.00;98715.00;5024716;28;20136;-74
2021/12/01 10:47:44;;;;;;;2.15;0.95;;;;;;;9.27;100.00;98711.78;5018096;28;20041;-75
2021/12/01 10:50:13;;;;;;;4.05;1.45;;;;;;;9.18;100.00;98706.13;5025523;28;20080;-74
2021/12/01 10:52:52;;;;;;;5.07;1.65;;;;;;;9.22;100.00;98708.78;5026372;28;20509;-74
2021/12/01 10:55:23;;;;;;;3.95;1.30;;;;;;;9.22;100.00;98693.00;5023148;28;20492;-74
2021/12/01 10:57:55;;;;;;;4.07;1.40;;;;;;;9.22;100.00;98693.00;5019023;28;20045;-76
2021/12/01 11:00:28;;;;;;;1.98;1.08;;;;;;;9.28;100.00;98693.25;5029876;28;20077;-74
2021/12/01 11:03:18;;;;;;;1.73;1.13;;;;;;;9.26;100.00;98690.94;5026062;28;20045;-74
2021/12/01 11:05:47;;;;;;;3.65;2.40;;;;;;;9.35;100.00;98674.50;5027887;28;20052;-74
2021/12/01 11:08:24;;;;;;;3.67;1.50;;;;;;;9.25;100.00;98677.56;5027397;28;20449;-76
2021/12/01 11:11:05;;;;;;;2.72;1.58;;;;;;;9.28;100.00;98679.47;5024623;28;20057;-74
2021/12/01 11:13:32;;;;;;;3.63;1.58;;;;;;;9.34;100.00;98667.44;5038300;28;20049;-74
2021/12/01 11:16:02;;;;;;;1.45;0.95;;;;;;;9.39;100.00;98668.91;5027934;28;20144;-74
2021/12/01 11:18:50;;;;;;;3.72;1.73;;;;;;;9.35;100.00;98662.69;5034461;28;20060;-73
2021/12/01 11:21:23;;;;;;;1.98;1.52;;;;;;;9.40;100.00;98667.66;5035750;28;20074;-73
2021/12/01 11:23:56;;;;;;;2.45;1.75;;;;;;;9.39;100.00;98657.84;5026645;28;20502;-73
2021/12/01 11:26:26;;;;;;;4.05;2.30;;;;;;;9.38;100.00;98676.38;5025893;28;20664;-73
2021/12/01 11:28:55;;;;;;;1.58;1.25;;;;;;;9.46;100.00;98655.66;5026179;28;20460;-76
2021/12/01 11:31:25;;;;;;;3.88;1.92;;;;;;;9.46;100.00;98672.22;5033619;28;20135;-73
2021/12/01 11:33:55;;;;;;;3.17;1.67;;;;;;;9.52;100.00;98661.41;5043300;28;20048;-73
2021/12/01 11:36:28;;;;;;;3.88;2.25;;;;;;;9.50;100.00;98658.31;5032862;28;20132;-73
2021/12/01 11:38:57;;;;;;;3.28;2.25;;;;;;;9.59;100.00;98661.97;5028152;28;20144;-74
2021/12/01 11:41:24;;;;;;;4.95;2.30;;;;;;;9.53;100.00;98666.50;5029091;28;20059;-73
2021/12/01 11:43:56;;;;;;;5.15;2.35;;;;;;;9.57;100.00;98672.69;5021113;28;20088;-73
2021/12/01 11:46:23;;;;;;;5.25;2.50;;;;;;;9.53;100.00;98668.47;5030954;28;20051;-75